createdAt,value
2019-03-09T00:02:16.490Z,89.08
2019-03-09T00:04:47.779Z,89.40
2019-03-09T00:07:19.015Z,89.64
2019-03-09T00:09:50.293Z,89.47
2019-03-09T00:12:21.609Z,89.37
2019-03-09T00:14:52.843Z,89.52
2019-03-09T00:17:24.161Z,88.90
2019-03-09T00:19:58.010Z,88.83
2019-03-09T00:22:29.326Z,88.73
2019-03-09T00:25:23.226Z,88.35
2019-03-09T00:28:04.359Z,88.37
2019-03-09T00:30:46.627Z,87.61
2019-03-09T00:33:18.867Z,87.91
2019-03-09T00:35:50.471Z,87.96
2019-03-09T00:38:21.726Z,88.25
2019-03-09T00:40:52.957Z,88.52
2019-03-09T00:43:24.147Z,88.19
2019-03-09T00:45:56.773Z,88.09
2019-03-09T00:48:28.175Z,88.70
2019-03-09T00:50:59.490Z,88.72
2019-03-09T00:53:30.804Z,88.68
2019-03-09T00:56:02.403Z,88.52
2019-03-09T00:58:33.895Z,88.84
2019-03-09T01:01:05.939Z,89.13
2019-03-09T01:03:37.244Z,88.57
2019-03-09T01:06:08.970Z,88.44
2019-03-09T01:08:41.331Z,88.24
2019-03-09T01:11:12.639Z,88.38
2019-03-09T01:13:43.822Z,88.60
2019-03-09T01:16:15.296Z,89.37
2019-03-09T01:18:46.916Z,90.50
2019-03-09T01:21:18.126Z,88.66
2019-03-09T01:23:49.836Z,88.05
2019-03-09T01:26:21.134Z,88.27
2019-03-09T01:28:52.450Z,88.22
2019-03-09T01:31:23.829Z,88.74
2019-03-09T01:33:55.053Z,89.42
2019-03-09T01:36:26.363Z,89.71
2019-03-09T01:38:57.606Z,90.36
2019-03-09T01:41:28.968Z,90.46
2019-03-09T01:44:00.203Z,90.61
2019-03-09T01:46:31.427Z,90.56
2019-03-09T01:49:02.683Z,90.76
2019-03-09T01:51:34.263Z,89.68
2019-03-09T01:54:05.774Z,89.76
2019-03-09T01:56:36.937Z,90.09
2019-03-09T01:59:08.187Z,90.29
2019-03-09T02:01:39.502Z,90.54
2019-03-09T02:04:10.819Z,90.60
2019-03-09T02:06:42.314Z,91.24
2019-03-09T02:09:13.731Z,91.02
2019-03-09T02:11:45.195Z,91.66
2019-03-09T02:14:16.499Z,91.68
2019-03-09T02:16:48.145Z,91.50
2019-03-09T02:19:19.447Z,91.57
2019-03-09T02:21:50.770Z,92.66
2019-03-09T02:24:21.924Z,92.30
2019-03-09T02:26:53.107Z,91.94
2019-03-09T02:29:24.296Z,91.78
2019-03-09T02:31:55.465Z,91.52
2019-03-09T02:34:26.741Z,91.20
2019-03-09T02:36:58.335Z,91.36
2019-03-09T02:39:49.840Z,91.06
2019-03-09T02:42:21.146Z,91.28
2019-03-09T02:44:52.324Z,90.94
2019-03-09T02:47:23.481Z,90.95
2019-03-09T02:49:55.479Z,90.85
2019-03-09T02:52:26.810Z,90.78
2019-03-09T02:54:58.212Z,90.84
2019-03-09T02:57:29.425Z,91.42
2019-03-09T03:00:01.412Z,91.91
2019-03-09T03:02:43.935Z,91.33
2019-03-09T03:05:16.573Z,91.47
2019-03-09T03:07:47.806Z,91.40
2019-03-09T03:10:19.486Z,91.02
2019-03-09T03:12:51.854Z,91.29
2019-03-09T03:15:33.408Z,91.84
2019-03-09T03:18:05.144Z,92.15
2019-03-09T03:20:36.394Z,91.86
2019-03-09T03:23:08.002Z,92.08
2019-03-09T03:25:39.343Z,92.06
2019-03-09T03:28:11.069Z,91.93
2019-03-09T03:30:42.489Z,92.44
2019-03-09T03:33:13.766Z,91.05
2019-03-09T03:35:45.390Z,90.33
2019-03-09T03:38:16.655Z,89.83
2019-03-09T03:40:48.396Z,90.06
2019-03-09T03:43:19.633Z,89.72
2019-03-09T03:45:51.391Z,89.58
2019-03-09T03:48:22.815Z,89.94
2019-03-09T03:50:54.309Z,89.58
2019-03-09T03:53:25.697Z,89.36
2019-03-09T03:55:57.088Z,89.31
2019-03-09T03:58:28.408Z,88.92
2019-03-09T04:00:59.825Z,88.79
2019-03-09T04:03:31.329Z,88.31
2019-03-09T04:06:02.932Z,87.99
2019-03-09T04:08:34.615Z,87.98
2019-03-09T04:11:06.365Z,87.66
2019-03-09T04:13:37.741Z,88.05
2019-03-09T04:16:09.157Z,88.41
2019-03-09T04:18:40.399Z,88.06
2019-03-09T04:21:12.809Z,87.68
2019-03-09T04:23:44.070Z,87.44
2019-03-09T04:26:15.251Z,87.36
2019-03-09T04:28:46.668Z,87.71
2019-03-09T04:31:17.939Z,87.12
2019-03-09T04:33:49.617Z,86.73
2019-03-09T04:36:21.294Z,86.76
2019-03-09T04:38:52.786Z,86.83
2019-03-09T04:41:24.046Z,86.87
2019-03-09T04:43:55.449Z,86.81
2019-03-09T04:46:27.021Z,87.12
2019-03-09T04:48:58.347Z,87.03
2019-03-09T04:51:29.932Z,86.83
2019-03-09T04:54:01.244Z,86.03
2019-03-09T04:56:32.500Z,85.30
2019-03-09T04:59:04.118Z,84.77
2019-03-09T05:01:35.356Z,83.89
2019-03-09T05:04:58.968Z,83.15
2019-03-09T05:07:49.886Z,82.77
2019-03-09T05:10:54.272Z,82.48
2019-03-09T05:13:56.747Z,82.29
2019-03-09T05:16:27.922Z,81.42
2019-03-09T05:18:59.109Z,80.73
2019-03-09T05:21:30.566Z,80.17
2019-03-09T05:24:01.924Z,79.67
2019-03-09T05:26:33.177Z,79.38
2019-03-09T05:29:04.526Z,78.64
2019-03-09T05:31:36.439Z,78.13
2019-03-09T05:34:07.938Z,77.54
2019-03-09T05:36:39.509Z,78.18
2019-03-09T05:39:10.953Z,78.41
2019-03-09T05:41:42.271Z,77.91
2019-03-09T05:44:13.936Z,77.45
2019-03-09T05:46:45.248Z,77.54
2019-03-09T05:49:16.905Z,77.15
2019-03-09T05:52:32.007Z,77.41
2019-03-09T05:55:21.182Z,77.36
2019-03-09T05:57:52.526Z,77.65
2019-03-09T06:00:23.950Z,77.20
2019-03-09T06:02:55.344Z,77.66
2019-03-09T06:05:45.591Z,77.49
2019-03-09T06:08:17.267Z,77.12
2019-03-09T06:10:48.918Z,77.60
2019-03-09T06:13:20.274Z,77.12
2019-03-09T06:15:51.619Z,76.82
2019-03-09T06:18:22.875Z,75.80
2019-03-09T06:20:54.070Z,75.65
2019-03-09T06:23:26.051Z,75.71
2019-03-09T06:25:57.432Z,75.37
2019-03-09T06:28:28.899Z,75.16
2019-03-09T06:31:00.199Z,74.49
2019-03-09T06:33:36.091Z,73.77
2019-03-09T06:36:25.601Z,72.32
2019-03-09T06:39:48.482Z,72.21
2019-03-09T06:42:58.473Z,72.35
2019-03-09T06:45:29.869Z,75.77
2019-03-09T06:48:01.031Z,77.33
2019-03-09T06:50:32.701Z,77.44
2019-03-09T06:53:04.455Z,76.84
2019-03-09T06:55:35.860Z,76.28
2019-03-09T06:58:07.112Z,76.09
2019-03-09T07:00:41.209Z,75.89
2019-03-09T07:03:13.020Z,75.26
2019-03-09T07:05:44.340Z,76.64
2019-03-09T07:08:16.006Z,78.44
2019-03-09T07:10:47.257Z,79.85
2019-03-09T07:13:18.555Z,77.85
2019-03-09T07:15:50.024Z,78.72
2019-03-09T07:18:32.465Z,79.28
2019-03-09T07:21:03.850Z,77.89
2019-03-09T07:23:35.144Z,77.52
2019-03-09T07:26:07.650Z,77.89
2019-03-09T07:28:39.040Z,77.68
2019-03-09T07:31:10.372Z,77.70
2019-03-09T07:33:41.956Z,78.10
2019-03-09T07:36:13.354Z,76.24
2019-03-09T07:38:44.623Z,75.89
2019-03-09T07:41:16.124Z,75.72
2019-03-09T07:43:47.347Z,76.18
2019-03-09T07:46:18.602Z,77.12
2019-03-09T07:48:49.768Z,76.69
2019-03-09T07:51:21.021Z,75.72
2019-03-09T07:53:52.403Z,75.57
2019-03-09T07:56:23.764Z,76.02
2019-03-09T07:58:55.027Z,75.42
2019-03-09T08:01:26.553Z,75.89
2019-03-09T08:03:58.781Z,74.40
2019-03-09T08:06:30.038Z,74.91
2019-03-09T08:09:01.494Z,73.39
2019-03-09T08:11:34.731Z,73.98
2019-03-09T08:14:06.125Z,73.18
2019-03-09T08:16:37.555Z,73.01
2019-03-09T08:19:08.874Z,72.39
2019-03-09T08:21:40.125Z,72.43
2019-03-09T08:24:11.372Z,71.84
2019-03-09T08:26:42.733Z,71.29
2019-03-09T08:29:13.898Z,71.63
2019-03-09T08:31:45.480Z,72.26
2019-03-09T08:34:16.983Z,70.46
2019-03-09T08:36:48.593Z,69.98
2019-03-09T08:39:20.199Z,69.52
2019-03-09T08:41:51.760Z,69.71
2019-03-09T08:44:22.946Z,69.81
2019-03-09T08:46:54.167Z,69.34
2019-03-09T08:49:25.681Z,70.37
2019-03-09T08:51:57.242Z,68.89
2019-03-09T08:54:28.595Z,69.57
2019-03-09T08:56:59.774Z,70.28
2019-03-09T08:59:31.052Z,70.48
2019-03-09T09:02:02.285Z,70.75
2019-03-09T09:04:34.792Z,70.16
2019-03-09T09:07:06.244Z,70.31
2019-03-09T09:09:37.795Z,70.44
2019-03-09T09:12:09.306Z,71.02
2019-03-09T09:14:40.580Z,70.46
2019-03-09T09:17:12.222Z,70.07
2019-03-09T09:19:43.804Z,70.17
2019-03-09T09:22:15.315Z,69.73
2019-03-09T09:24:46.639Z,69.99
2019-03-09T09:27:17.962Z,69.83
2019-03-09T09:29:49.540Z,68.80
2019-03-09T09:32:20.782Z,68.47
2019-03-09T09:34:52.117Z,68.60
2019-03-09T09:37:23.513Z,68.16
2019-03-09T09:39:54.883Z,68.04
2019-03-09T09:42:26.871Z,68.11
2019-03-09T09:44:58.108Z,67.42
2019-03-09T09:47:29.642Z,67.63
2019-03-09T09:50:00.948Z,67.68
2019-03-09T09:52:32.273Z,67.21
2019-03-09T09:55:03.565Z,67.41
2019-03-09T09:57:34.837Z,67.89
2019-03-09T10:00:08.891Z,67.98
2019-03-09T10:02:40.844Z,67.70
2019-03-09T10:05:13.025Z,67.68
2019-03-09T10:07:44.427Z,67.38
2019-03-09T10:10:17.625Z,66.90
2019-03-09T10:12:48.971Z,66.79
2019-03-09T10:15:23.478Z,66.25
2019-03-09T10:17:54.987Z,65.42
2019-03-09T10:20:26.343Z,65.40
2019-03-09T10:23:03.993Z,65.31
2019-03-09T10:25:31.714Z,64.61
2019-03-09T10:28:03.113Z,64.85
2019-03-09T10:30:35.187Z,62.87
2019-03-09T10:33:06.609Z,61.67
2019-03-09T10:35:38.452Z,60.16
2019-03-09T10:38:09.887Z,61.51
2019-03-09T10:40:41.245Z,58.93
2019-03-09T10:43:12.629Z,59.84
2019-03-09T10:45:44.493Z,59.34
2019-03-09T10:48:15.763Z,58.23
2019-03-09T10:50:47.128Z,59.80
2019-03-09T10:53:19.025Z,59.02
2019-03-09T10:55:50.437Z,58.83
2019-03-09T10:58:22.095Z,59.09
2019-03-09T11:00:53.510Z,59.77
2019-03-09T11:03:24.818Z,59.16
2019-03-09T11:05:56.212Z,58.50
2019-03-09T11:08:28.010Z,56.62
2019-03-09T11:10:59.671Z,58.25
2019-03-09T11:13:33.488Z,57.19
2019-03-09T11:16:04.914Z,58.12
2019-03-09T11:18:36.255Z,59.30
2019-03-09T11:21:07.972Z,59.06
2019-03-09T11:23:39.481Z,58.43
2019-03-09T11:26:10.829Z,58.35
2019-03-09T11:28:42.360Z,58.23
2019-03-09T11:31:13.994Z,57.91
2019-03-09T11:33:45.610Z,58.71
2019-03-09T11:36:16.777Z,59.69
2019-03-09T11:38:48.064Z,60.61
2019-03-09T11:41:19.629Z,61.10
2019-03-09T11:43:50.968Z,60.82
2019-03-09T11:46:22.584Z,60.27
2019-03-09T11:48:53.911Z,60.44
2019-03-09T11:51:25.324Z,61.10
2019-03-09T11:53:56.668Z,61.61
2019-03-09T11:56:28.196Z,61.53
2019-03-09T11:58:59.372Z,61.99
2019-03-09T12:01:30.797Z,61.71
2019-03-09T12:04:01.976Z,61.64
2019-03-09T12:06:33.612Z,61.54
2019-03-09T12:09:06.669Z,61.59
2019-03-09T12:11:39.665Z,62.15
2019-03-09T12:14:11.276Z,61.68
2019-03-09T12:16:42.905Z,62.56
2019-03-09T12:19:17.124Z,62.21
2019-03-09T12:21:48.312Z,61.87
2019-03-09T12:24:20.120Z,61.71
2019-03-09T12:26:51.557Z,61.26
2019-03-09T12:29:22.968Z,62.50
2019-03-09T12:31:54.300Z,61.81
2019-03-09T12:34:25.698Z,62.03
2019-03-09T12:36:57.417Z,61.82
2019-03-09T12:39:28.859Z,62.41
2019-03-09T12:42:00.119Z,62.22
2019-03-09T12:44:31.409Z,62.66
2019-03-09T12:47:03.005Z,61.93
2019-03-09T12:49:34.185Z,63.31
2019-03-09T12:52:05.500Z,62.42
2019-03-09T12:54:36.769Z,62.37
2019-03-09T12:57:08.487Z,62.59
2019-03-09T12:59:39.882Z,62.92
2019-03-09T13:02:11.240Z,63.50
2019-03-09T13:04:42.501Z,64.07
2019-03-09T13:07:13.839Z,64.32
2019-03-09T13:09:45.170Z,64.07
2019-03-09T13:12:16.919Z,63.93
2019-03-09T13:14:48.256Z,64.10
2019-03-09T13:17:20.280Z,63.90
2019-03-09T13:19:51.642Z,63.58
2019-03-09T13:22:22.891Z,62.16
2019-03-09T13:24:54.141Z,62.80
2019-03-09T13:27:25.599Z,63.53
2019-03-09T13:29:57.366Z,63.53
2019-03-09T13:32:28.697Z,63.30
2019-03-09T13:34:59.964Z,63.28
2019-03-09T13:37:31.286Z,62.66
2019-03-09T13:40:02.587Z,62.11
2019-03-09T13:42:34.032Z,62.04
2019-03-09T13:45:05.878Z,63.20
2019-03-09T13:47:37.299Z,63.36
2019-03-09T13:50:10.527Z,61.71
2019-03-09T13:52:43.273Z,61.73
2019-03-09T13:55:14.921Z,62.05
2019-03-09T13:57:46.344Z,62.39
2019-03-09T14:00:17.778Z,61.91
2019-03-09T14:02:49.454Z,61.42
2019-03-09T14:05:20.698Z,61.03
2019-03-09T14:07:52.377Z,60.05
2019-03-09T14:10:23.815Z,59.67
2019-03-09T14:12:55.189Z,59.85
2019-03-09T14:15:26.439Z,59.46
2019-03-09T14:17:57.698Z,58.60
2019-03-09T14:20:28.977Z,59.28
2019-03-09T14:23:00.747Z,59.38
2019-03-09T14:25:31.997Z,59.46
2019-03-09T14:28:03.338Z,58.99
2019-03-09T14:30:34.653Z,58.63
2019-03-09T14:33:05.984Z,58.68
2019-03-09T14:35:37.309Z,59.64
2019-03-09T14:38:08.642Z,59.66
2019-03-09T14:40:40.020Z,59.78
2019-03-09T14:43:11.908Z,59.31
2019-03-09T14:45:43.230Z,59.97
2019-03-09T14:48:14.490Z,60.36
2019-03-09T14:50:46.124Z,60.18
2019-03-09T14:53:17.579Z,60.23
2019-03-09T14:55:48.910Z,60.16
2019-03-09T14:58:20.157Z,61.39
2019-03-09T15:00:51.862Z,60.67
2019-03-09T15:03:23.172Z,61.14
2019-03-09T15:05:54.478Z,61.12
2019-03-09T15:08:25.739Z,61.87
2019-03-09T15:10:58.400Z,61.78
2019-03-09T15:13:30.096Z,61.93
2019-03-09T15:16:01.775Z,62.40
2019-03-09T15:18:33.816Z,62.61
2019-03-09T15:21:05.175Z,63.15
2019-03-09T15:23:36.497Z,63.52
2019-03-09T15:26:08.166Z,68.17
2019-03-09T15:28:39.508Z,70.18
2019-03-09T15:31:10.978Z,71.64
2019-03-09T15:33:42.202Z,72.91
2019-03-09T15:36:13.539Z,75.24
2019-03-09T15:39:17.399Z,77.07
2019-03-09T15:42:20.523Z,75.25
2019-03-09T15:45:14.058Z,76.72
2019-03-09T15:48:06.480Z,75.33
2019-03-09T15:51:02.981Z,73.59
2019-03-09T15:54:33.844Z,75.45
2019-03-09T15:57:34.598Z,76.37
2019-03-09T16:00:25.373Z,75.48
2019-03-09T16:03:15.027Z,75.73
2019-03-09T16:06:10.228Z,76.29
2019-03-09T16:09:19.870Z,75.79
2019-03-09T16:12:14.584Z,76.17
2019-03-09T16:15:02.260Z,74.77
2019-03-09T16:17:59.681Z,74.39
2019-03-09T16:22:03.214Z,75.22
2019-03-09T16:24:22.105Z,74.69
2019-03-09T16:27:11.781Z,73.87
2019-03-09T16:29:42.930Z,74.02
2019-03-09T16:32:14.171Z,74.06
2019-03-09T16:34:45.616Z,73.67
2019-03-09T16:37:17.738Z,74.13
2019-03-09T16:39:48.983Z,74.04
2019-03-09T16:42:20.391Z,74.49
2019-03-09T16:44:51.742Z,73.54
2019-03-09T16:47:23.060Z,74.73
2019-03-09T16:49:54.391Z,74.88
2019-03-09T16:52:25.650Z,73.90
2019-03-09T16:54:56.850Z,73.80
2019-03-09T16:57:28.718Z,73.76
2019-03-09T16:59:59.937Z,73.13
2019-03-09T17:02:31.269Z,73.54
2019-03-09T17:05:03.723Z,72.97
2019-03-09T17:07:35.458Z,73.64
2019-03-09T17:10:07.384Z,73.92
2019-03-09T17:12:39.677Z,74.79
2019-03-09T17:15:12.257Z,73.95
2019-03-09T17:17:43.911Z,73.56
2019-03-09T17:20:17.686Z,73.44
2019-03-09T17:22:49.592Z,72.27
2019-03-09T17:25:21.270Z,73.17
2019-03-09T17:27:52.856Z,72.21
2019-03-09T17:30:24.250Z,72.72
2019-03-09T17:32:55.700Z,73.07
2019-03-09T17:35:32.654Z,72.86
2019-03-09T17:38:04.032Z,73.08
2019-03-09T17:40:36.450Z,73.36
2019-03-09T17:43:07.776Z,73.18
2019-03-09T17:45:39.019Z,73.24
2019-03-09T17:48:10.712Z,74.04
2019-03-09T17:50:42.346Z,73.08
2019-03-09T17:53:14.178Z,73.69
2019-03-09T17:55:45.743Z,73.60
2019-03-09T17:58:17.397Z,73.42
2019-03-09T18:00:48.802Z,73.77
2019-03-09T18:03:20.513Z,73.59
2019-03-09T18:05:51.756Z,73.71
2019-03-09T18:08:22.940Z,73.78
2019-03-09T18:11:01.252Z,73.44
2019-03-09T18:13:32.596Z,72.60
2019-03-09T18:16:04.260Z,72.23
2019-03-09T18:18:35.871Z,71.83
2019-03-09T18:21:07.267Z,70.64
2019-03-09T18:23:38.599Z,70.65
2019-03-09T18:26:09.914Z,70.51
2019-03-09T18:28:41.518Z,70.36
2019-03-09T18:31:12.871Z,68.26
2019-03-09T18:33:44.197Z,68.33
2019-03-09T18:36:15.456Z,65.40
2019-03-09T18:38:46.764Z,65.42
2019-03-09T18:41:17.998Z,64.36
2019-03-09T18:43:49.511Z,63.70
2019-03-09T18:46:20.798Z,62.82
2019-03-09T18:48:52.214Z,63.56
2019-03-09T18:51:23.972Z,63.13
2019-03-09T18:53:55.730Z,63.05
2019-03-09T18:56:27.149Z,63.49
2019-03-09T18:58:58.417Z,63.93
2019-03-09T19:01:29.776Z,63.59
2019-03-09T19:04:01.260Z,62.40
2019-03-09T19:06:32.591Z,63.05
2019-03-09T19:09:05.939Z,64.92
2019-03-09T19:11:37.512Z,63.74
2019-03-09T19:14:08.852Z,64.81
2019-03-09T19:16:40.209Z,65.21
2019-03-09T19:19:11.570Z,63.52
2019-03-09T19:21:42.903Z,62.69
2019-03-09T19:24:14.259Z,62.97
2019-03-09T19:26:45.517Z,62.96
2019-03-09T19:29:18.196Z,62.05
2019-03-09T19:31:49.542Z,62.28
2019-03-09T19:34:21.050Z,61.93
2019-03-09T19:36:52.461Z,61.93
2019-03-09T19:39:23.796Z,61.75
2019-03-09T19:41:55.183Z,61.92
2019-03-09T19:44:26.448Z,62.51
2019-03-09T19:46:57.718Z,62.42
2019-03-09T19:49:28.971Z,62.01
2019-03-09T19:52:00.684Z,61.58
2019-03-09T19:54:31.943Z,61.71
2019-03-09T19:57:03.525Z,62.06
2019-03-09T19:59:34.861Z,62.32
2019-03-09T20:02:06.285Z,63.12
2019-03-09T20:04:37.768Z,62.67
2019-03-09T20:07:09.127Z,62.83
2019-03-09T20:09:40.448Z,62.88
2019-03-09T20:12:12.142Z,62.75
2019-03-09T20:14:43.495Z,63.34
2019-03-09T20:17:14.940Z,62.78
2019-03-09T20:19:46.222Z,62.77
2019-03-09T20:22:17.496Z,62.86
2019-03-09T20:24:48.751Z,63.22
2019-03-09T20:27:20.452Z,63.55
2019-03-09T20:29:52.840Z,63.02
2019-03-09T20:32:24.528Z,62.79
2019-03-09T20:34:55.795Z,63.74
2019-03-09T20:37:27.214Z,63.84
2019-03-09T20:39:58.740Z,63.79
2019-03-09T20:42:30.103Z,64.21
2019-03-09T20:45:01.355Z,63.52
2019-03-09T20:47:33.510Z,64.26
2019-03-09T20:50:05.498Z,64.09
2019-03-09T20:52:36.846Z,63.91
2019-03-09T20:55:08.579Z,64.48
2019-03-09T20:57:39.994Z,63.98
2019-03-09T21:00:15.145Z,63.78
2019-03-09T21:02:48.221Z,63.94
2019-03-09T21:05:19.794Z,64.13
2019-03-09T21:07:51.262Z,63.56
2019-03-09T21:10:22.871Z,63.20
2019-03-09T21:13:00.174Z,63.97
2019-03-09T21:15:32.652Z,63.50
2019-03-09T21:18:04.046Z,64.16
2019-03-09T21:20:35.538Z,62.22
2019-03-09T21:23:07.023Z,63.19
2019-03-09T21:25:38.425Z,63.47
2019-03-09T21:28:09.870Z,63.49
2019-03-09T21:30:41.131Z,63.65
2019-03-09T21:33:12.464Z,63.87
2019-03-09T21:35:43.811Z,64.40
2019-03-09T21:38:15.107Z,64.00
2019-03-09T21:40:46.470Z,64.13
2019-03-09T21:43:20.602Z,64.36
2019-03-09T21:45:51.403Z,65.06
2019-03-09T21:48:22.699Z,64.25
2019-03-09T21:50:54.060Z,64.01
2019-03-09T21:53:25.519Z,64.01
2019-03-09T21:55:56.898Z,63.69
2019-03-09T21:58:28.175Z,64.40
2019-03-09T22:00:59.772Z,64.98
2019-03-09T22:03:31.400Z,64.98
2019-03-09T22:06:06.337Z,64.31
2019-03-09T22:08:36.657Z,64.85
2019-03-09T22:11:07.852Z,65.33
2019-03-09T22:13:39.119Z,65.66
2019-03-09T22:16:10.726Z,65.88
2019-03-09T22:18:42.079Z,65.35
2019-03-09T22:21:13.377Z,65.23
2019-03-09T22:23:45.717Z,65.31
2019-03-09T22:26:16.953Z,65.28
2019-03-09T22:28:48.295Z,65.56
2019-03-09T22:31:20.652Z,65.19
2019-03-09T22:33:52.381Z,65.14
2019-03-09T22:36:24.090Z,64.64
2019-03-09T22:38:55.714Z,65.36
2019-03-09T22:41:27.213Z,66.45
2019-03-09T22:43:58.505Z,67.25
2019-03-09T22:46:30.167Z,67.58
2019-03-09T22:49:01.355Z,68.09
2019-03-09T22:51:32.648Z,68.84
2019-03-09T22:54:04.059Z,69.67
2019-03-09T22:56:36.384Z,70.20
2019-03-09T22:59:07.656Z,71.07
2019-03-09T23:01:39.190Z,71.66
2019-03-09T23:04:10.436Z,72.15
2019-03-09T23:06:42.192Z,72.58
2019-03-09T23:09:13.438Z,72.75
2019-03-09T23:11:47.452Z,72.86
2019-03-09T23:14:19.279Z,72.92
2019-03-09T23:16:50.692Z,72.95
2019-03-09T23:19:22.118Z,73.20
2019-03-09T23:21:53.801Z,73.09
2019-03-09T23:24:25.056Z,73.28
2019-03-09T23:26:56.398Z,73.07
2019-03-09T23:29:27.708Z,73.25
2019-03-09T23:31:59.124Z,73.46
2019-03-09T23:34:30.613Z,73.44
2019-03-09T23:37:02.342Z,73.47
2019-03-09T23:39:34.544Z,73.54
2019-03-09T23:42:05.927Z,73.60
2019-03-09T23:44:37.356Z,73.62
2019-03-09T23:47:09.019Z,73.92
2019-03-09T23:49:40.454Z,73.64
2019-03-09T23:52:12.260Z,73.69
2019-03-09T23:54:44.028Z,73.37
2019-03-09T23:57:15.405Z,73.51
2019-03-09T23:59:46.817Z,73.68
